x

Long Island - 30 Nm South Of Islip, Ny (44025) Wave Buoy

6:50pm - Tue 23rd Sep 2014 All times are EDT. -4 hours from GMT.

  • Sig Wave height 1.6ft
  • Swell Direction
  • Peak Period 7s
  • Average Period 6s
  • Wind
    2mph, 4mph gusts
  • Sea Temp 68°f
  • Air Temp 63°f
  • Sea Pressure 1027.4mb
  • Long Island - 30 Nm South Of Islip, Ny
  • Long Island - 30 Nm South Of Islip, Ny

More Historic Weather Station data

Upgrade to MSW Pro to gain access to the past 30 days of data for over 8000 Wavebouys and Weather Stations around the globe.

Join Pro

Comparision Forecast

View Surf forecast
   
Tue 09/23 6:50pm 1.6ft 7s 6s 2 4 mph 1027.4mb 68f 63f
5:50pm 1.6ft 8s 6s 2
mph
1027.1mb 68f 63f
4:50pm 1.6ft 8s 6s 4 7 mph 1027mb 68f 62f
3:50pm 2ft 9s 5s 7
mph
1027mb 68f 61f
2:50pm 2ft 9s 5s 7 9 mph 1027.4mb 68f 60f
1:50pm 2ft 8s 5s 9 11 mph 1027.3mb 68f 59f
12:50pm 2.5ft 8s 5s 9 13 mph 1027.6mb 68f 59f
11:50am 2.5ft 9s 4s 11 16 mph 1027.1mb 68f 59f
10:50am 2.5ft 8s 4s 11 16 mph 1026.9mb 68f 58f
9:50am 3ft 8s 4s 13 18 mph 1026.5mb 68f 58f
8:50am 2.5ft 8s 4s 16 18 mph 1026mb 68f 58f
7:50am 2.5ft 9s 5s 13 18 mph 1025.3mb 68f 58f
6:50am 2.5ft 8s 5s 13 18 mph 1024.6mb 68f 58f
5:50am 3ft 8s 5s 9 13 mph 1023.9mb 68f 58f
3:50am 3.5ft 9s 5s 9 13 mph 1022.7mb 68f 58f
2:50am 4ft 9s 5s 11 13 mph 1022.3mb 68f 58f
1:50am 4.5ft 9s 5s 13 18 mph 1022mb 68f 58f
12:50am 4.5ft 5s 5s 18 22 mph 1021.3mb 68f 59f
Mon 09/22 11:50pm 5ft 10s 5s 20 25 mph 1020.9mb 68f 60f
10:50pm 5ft 5s 5s 25 31 mph 1020.2mb 68f 61f
9:50pm 5ft 5s 5s 25 31 mph 1018.8mb 68f 62f
8:50pm 5ft 10s 5s 22 27 mph 1017.7mb 68f 64f
7:50pm 5ft 10s 5s 20 22 mph 1016.5mb 68f 66f
6:50pm 5.5ft 10s 6s 22 27 mph 1015.2mb 68f 67f
5:50pm 6ft 11s 6s 20 25 mph 1014.2mb 68f 67f
4:50pm 6ft 10s 6s 20 25 mph 1013.4mb 68f 68f
3:50pm 6ft 10s 6s 20 25 mph 1012.8mb 68f 67f
2:50pm 6ft 11s 6s 20 22 mph 1012.7mb 68f 67f
1:50pm 6.5ft 10s 7s 20 25 mph 1012.2mb 68f 67f
12:50pm 6.5ft 11s 6s 20 25 mph 1011.8mb 68f 67f
11:50am 6.5ft 11s 6s 18 22 mph 1011.5mb 68f 66f
10:50am 7ft 10s 6s 20 27 mph 1011.2mb 68f 66f
9:50am 7ft 11s 6s 22 27 mph 1010.6mb 68f 66f
8:50am 7ft 10s 6s 22 29 mph 1009.4mb 68f 67f
7:50am 7ft 10s 6s 27 31 mph 1008.4mb 68f 68f
6:50am 7ft 10s 6s 22 29 mph 1007.1mb 69f 69f
5:50am 6ft 8s 6s 22 29 mph 1006mb 69f 69f
4:50am 5ft 8s 6s 16 20 mph 1005.3mb 69f 70f
3:50am 4.5ft 7s 5s 16 20 mph 1004.2mb 69f 70f
2:50am 4ft 8s 5s 13 18 mph 1003.8mb 69f 71f
1:50am 3.5ft 7s 5s 20 25 mph 1003.3mb 69f 72f
12:50am 3.5ft 8s 5s 13 18 mph 1004.1mb 69f 70f
Sun 09/21 11:50pm 3.5ft 8s 6s 13 16 mph 1004.2mb 69f 69f
10:50pm 3.5ft 8s 6s 13
mph
1004.3mb 69f 69f
9:50pm 4ft 7s 6s 7
mph
1003.9mb 69f 69f
8:50pm 3.5ft 8s 6s 2 4 mph 1003.5mb 69f 69f
7:50pm 3.5ft 8s 6s  -  2 mph 1003.4mb 69f 69f
6:50pm 4ft 8s 6s 2 4 mph 1003.6mb 70f 70f
5:50pm 4ft 8s 6s 4
mph
1003.5mb 70f 70f
4:50pm 4.5ft 8s 6s 2 4 mph 1004.8mb 70f 70f
3:50pm 4.5ft 8s 6s 2 4 mph 1005.5mb 70f 70f
2:50pm 4ft 8s 6s 2
mph
1006.5mb 70f 70f
1:50pm 4.5ft 8s 6s 2 4 mph 1007.5mb 70f 70f
12:50pm 4.5ft 8s 6s 4
mph
1009mb 70f 70f
11:50am 4.5ft 8s 6s 4 7 mph 1010.5mb 69f 71f
10:50am 4ft 8s 6s 4 7 mph 1011.3mb 69f 70f
9:50am 4ft 8s 6s 9 11 mph 1011.7mb 69f 70f
8:50am 4.5ft 6s 6s 7 9 mph 1012.2mb 69f 71f
7:50am 4ft 7s 5s 4 9 mph 1013.1mb 69f 70f
6:50am 4.5ft 7s 5s 9
mph
1013.1mb 69f 69f
5:50am 4.5ft 8s 5s 11 13 mph 1013.5mb 69f 70f
4:50am 4.5ft 8s 5s 13 16 mph 1014.2mb 69f 70f
3:50am 4ft 7s 5s 18 25 mph 1014.4mb 69f 69f
2:50am 4.5ft 6s 6s 7 11 mph 1015.8mb 69f 71f
1:50am 4ft 7s 6s 7 9 mph 1016.9mb 69f 70f
12:50am 4ft 9s 5s 4 7 mph 1017.5mb 69f 69f
Sat 09/20 11:50pm 4.5ft 8s 5s 4 7 mph 1018.5mb 69f 70f
10:50pm 4.5ft 7s 5s 7 9 mph 1019mb 69f 70f
9:50pm 4ft 10s 5s 11 13 mph 1019.5mb 69f 69f
8:50pm 4ft 9s 5s 13 20 mph 1020.4mb 69f 70f
7:50pm 4ft 9s 5s 11
mph
1020.7mb 69f 70f
6:50pm 4ft 9s 5s 11 13 mph 1020.8mb 69f 70f
5:50pm 3.5ft 10s 5s 13 16 mph 1021.4mb 69f 70f
4:50pm 4ft 8s 5s 11 13 mph 1022.1mb 69f 70f
3:50pm 4ft 4s 5s 11 13 mph 1022.6mb 69f 69f
2:50pm 4ft 9s 5s 13 18 mph 1023.1mb 68f 69f
1:50pm 3.5ft 4s 5s 16 18 mph 1023.9mb 68f 69f
12:50pm 4ft 9s 5s 16 20 mph 1025mb 68f 68f
11:50am 3.5ft 8s 5s 18 20 mph 1025.3mb 67f 68f
10:50am 3.5ft 9s 5s 13 16 mph 1025.9mb 67f 67f
9:50am 3.5ft 8s 5s 16 18 mph 1026mb 67f 67f
8:50am 3.5ft 9s 5s 18 20 mph 1026.1mb 67f 67f
7:50am 3.5ft 9s 5s 16
mph
1026.4mb 67f 67f
6:50am 3.5ft 6s 5s 13 16 mph 1027mb 67f 66f
5:50am 3.5ft 6s 5s 11 13 mph 1027.2mb 67f 65f
4:50am 3.5ft 6s 5s 9 13 mph 1027.1mb 67f 65f
3:50am 4ft 7s 5s 11 16 mph 1026.8mb 67f 65f
2:50am 4ft 6s 5s 13 16 mph 1026.7mb 67f 64f
1:50am 4ft 6s 5s 13 18 mph 1027.3mb 67f 64f
12:50am 3.5ft 6s 5s 13 16 mph 1028mb 67f 63f